createdAt,value
2017-12-08T00:01:48.680Z,7.15
2017-12-08T00:11:48.704Z,6.98
2017-12-08T00:21:48.679Z,6.91
2017-12-08T00:31:48.735Z,6.77
2017-12-08T00:41:48.740Z,6.83
2017-12-08T00:51:48.694Z,6.61
2017-12-08T01:01:48.754Z,6.16
2017-12-08T01:11:48.670Z,5.88
2017-12-08T01:21:48.773Z,5.81
2017-12-08T01:31:48.743Z,5.55
2017-12-08T01:41:48.810Z,5.66
2017-12-08T01:51:48.762Z,5.68
2017-12-08T02:01:48.846Z,5.43
2017-12-08T02:11:48.787Z,5.57
2017-12-08T02:21:49.035Z,5.4
2017-12-08T02:31:48.804Z,5.17
2017-12-08T02:41:48.778Z,5.2
2017-12-08T02:51:49.119Z,5.17
2017-12-08T03:01:48.781Z,5.32
2017-12-08T03:11:48.854Z,5.25
2017-12-08T03:21:49.083Z,5.41
2017-12-08T03:31:48.884Z,5.59
2017-12-08T03:41:48.833Z,5.55
2017-12-08T03:51:48.937Z,5.49
2017-12-08T04:01:48.880Z,5.68
2017-12-08T04:11:48.813Z,5.5
2017-12-08T04:21:48.925Z,5.53
2017-12-08T04:31:48.880Z,5.46
2017-12-08T04:41:48.948Z,5.6
2017-12-08T04:51:48.870Z,5.3
2017-12-08T05:01:48.945Z,5.14
2017-12-08T05:11:49.799Z,4.88
2017-12-08T05:21:48.963Z,4.98
2017-12-08T05:31:48.946Z,4.83
2017-12-08T05:41:48.991Z,4.58
2017-12-08T05:51:48.964Z,4.36
2017-12-08T06:01:48.911Z,4.12
2017-12-08T06:11:48.954Z,4.04
2017-12-08T06:21:48.945Z,4.03
2017-12-08T06:31:49.078Z,3.8
2017-12-08T06:41:49.079Z,3.79
2017-12-08T06:51:49.083Z,3.47
2017-12-08T07:01:48.971Z,3.53
2017-12-08T07:11:49.044Z,3.42
2017-12-08T07:21:49.032Z,3.62
2017-12-08T07:31:49.226Z,3.68
2017-12-08T07:41:49.076Z,3.5
2017-12-08T07:51:48.997Z,3.6
2017-12-08T08:01:49.099Z,3.58
2017-12-08T08:11:49.003Z,3.6
2017-12-08T08:21:49.092Z,3.67
2017-12-08T08:31:49.103Z,4.67
2017-12-08T08:41:49.105Z,4.46
2017-12-08T08:51:49.701Z,4.25
2017-12-08T09:01:49.182Z,4.36
2017-12-08T09:11:49.103Z,4.39
2017-12-08T09:21:49.132Z,4.51
2017-12-08T09:31:49.086Z,4.25
2017-12-08T09:41:49.156Z,4.07
2017-12-08T09:51:49.156Z,3.98
2017-12-08T10:01:49.181Z,4.34
2017-12-08T10:11:49.131Z,4.21
2017-12-08T10:21:49.114Z,4.04
2017-12-08T10:31:49.184Z,3.44
2017-12-08T10:41:49.166Z,3.15
2017-12-08T10:51:49.253Z,3.42
2017-12-08T11:01:49.252Z,3.61
2017-12-08T11:11:49.230Z,3.75
2017-12-08T11:23:15.352Z,3.67
2017-12-08T11:33:15.303Z,4
2017-12-08T11:43:15.499Z,4.21
2017-12-08T11:53:15.401Z,4.22
2017-12-08T12:03:15.380Z,4.15
2017-12-08T12:13:15.357Z,4.51
2017-12-08T12:23:15.459Z,4.33
2017-12-08T12:33:15.363Z,4.08
2017-12-08T12:43:15.611Z,4.21
2017-12-08T12:53:15.415Z,4.03
2017-12-08T13:03:15.343Z,4.43
2017-12-08T13:13:15.435Z,4.22
2017-12-08T13:23:15.416Z,4.1
2017-12-08T13:33:15.460Z,4.15
2017-12-08T13:43:15.422Z,4.36
2017-12-08T13:53:15.473Z,4.26
2017-12-08T14:03:16.291Z,4.14
2017-12-08T14:13:15.495Z,4.03
2017-12-08T14:23:15.541Z,3.88
2017-12-08T14:33:15.417Z,3.7
2017-12-08T14:43:15.495Z,3.44
2017-12-08T14:53:15.429Z,3.27
2017-12-08T15:03:15.495Z,3.16
2017-12-08T15:13:21.660Z,3.2
2017-12-08T15:23:15.544Z,3.05
2017-12-08T15:33:15.669Z,2.76
2017-12-08T15:43:15.538Z,2.49
2017-12-08T15:53:15.543Z,2.41
2017-12-08T16:03:15.599Z,2.27
2017-12-08T16:13:15.793Z,2.04
2017-12-08T16:23:15.631Z,1.99
2017-12-08T16:33:15.553Z,2.12
2017-12-08T16:43:15.672Z,2.12
2017-12-08T16:53:15.566Z,2.23
2017-12-08T17:03:15.663Z,2.34
2017-12-08T17:13:15.618Z,2.06
2017-12-08T17:23:15.576Z,1.98
2017-12-08T17:33:15.639Z,1.76
2017-12-08T17:43:15.665Z,1.71
2017-12-08T17:53:21.220Z,1.54
2017-12-08T18:03:15.756Z,1.4
2017-12-08T18:13:15.799Z,1.61
2017-12-08T18:23:15.757Z,1.8
2017-12-08T18:33:15.783Z,2.12
2017-12-08T18:43:15.898Z,2.35
2017-12-08T18:53:38.095Z,2.45
2017-12-08T19:03:15.825Z,2.51
2017-12-08T19:13:15.813Z,2.52
2017-12-08T19:23:15.902Z,2.45
2017-12-08T19:33:17.982Z,1.94
2017-12-08T19:43:15.829Z,1.78
2017-12-08T19:53:15.746Z,1.64
2017-12-08T20:03:44.216Z,1.65
2017-12-08T20:13:21.278Z,1.57
2017-12-08T20:23:15.868Z,1.46
2017-12-08T20:33:15.830Z,1.36
2017-12-08T20:43:15.923Z,1.54
2017-12-08T20:53:15.834Z,1.36
2017-12-08T21:03:16.494Z,1.52
2017-12-08T21:13:16.005Z,1.61
2017-12-08T21:23:16.202Z,1.52
2017-12-08T21:33:16.290Z,1.54
2017-12-08T21:43:15.972Z,1.55
2017-12-08T21:53:16.105Z,1.75
2017-12-08T22:03:15.873Z,1.71
2017-12-08T22:13:15.816Z,1.69
2017-12-08T22:23:16.014Z,1.64
2017-12-08T22:33:15.994Z,1.6
2017-12-08T22:43:15.963Z,1.54
2017-12-08T22:53:15.901Z,1.55
2017-12-08T23:03:15.884Z,1.47
2017-12-08T23:13:15.838Z,1.6
2017-12-08T23:23:15.920Z,1.78
2017-12-08T23:33:15.879Z,1.78
2017-12-08T23:43:15.995Z,1.85
2017-12-08T23:53:15.891Z,2.01
